Time;durP1;ratioP1;P1;durP2;ratioP2;P2;SDS_P1;SDS_P2;PMS_P1;PMS_P2;Temp;Humidity;BMP_temperature;BMP_pressure;BME280_temperature;BME280_humidity;BME280_pressure;Samples;Min_cycle;Max_cycle;Signal;HPM_P1;HPM_P2
2022/07/31 00:01:11;;;;;;;7.25;3.05;;;29.00;56.40;;;;;;5093798;28;20020;-71
2022/07/31 00:03:37;;;;;;;6.55;2.80;;;29.00;55.60;;;;;;5094854;28;20095;-72
2022/07/31 00:06:02;;;;;;;6.72;3.20;;;28.90;54.50;;;;;;5094431;28;20552;-72
2022/07/31 00:08:28;;;;;;;6.88;3.35;;;29.00;56.00;;;;;;5094811;28;20020;-72
2022/07/31 00:11:03;;;;;;;9.23;3.70;;;29.00;55.10;;;;;;5094340;28;20480;-72
2022/07/31 00:13:29;;;;;;;6.72;4.00;;;28.90;53.50;;;;;;5094638;28;20066;-74
2022/07/31 00:15:55;;;;;;;9.05;3.70;;;28.90;55.00;;;;;;5094467;28;20101;-73
2022/07/31 00:18:20;;;;;;;8.60;4.15;;;28.80;56.90;;;;;;5094465;28;20031;-73
2022/07/31 00:20:47;;;;;;;13.93;5.00;;;28.80;57.30;;;;;;5094455;28;20604;-74
2022/07/31 00:23:13;;;;;;;9.23;4.63;;;28.70;58.40;;;;;;5094276;28;20028;-75
2022/07/31 00:25:39;;;;;;;8.43;4.88;;;28.80;59.20;;;;;;5094208;28;20464;-73
2022/07/31 00:28:06;;;;;;;9.20;3.72;;;28.80;58.80;;;;;;5094269;28;20020;-74
2022/07/31 00:30:31;;;;;;;9.82;4.03;;;28.80;58.20;;;;;;5094119;28;20024;-74
2022/07/31 00:32:57;;;;;;;8.00;3.80;;;28.80;59.10;;;;;;5094067;28;20404;-73
2022/07/31 00:35:23;;;;;;;8.48;4.07;;;28.80;59.10;;;;;;5094160;28;20051;-72
2022/07/31 00:37:48;;;;;;;9.18;3.55;;;28.80;58.50;;;;;;5094265;28;20031;-75
2022/07/31 00:40:16;;;;;;;9.80;3.70;;;28.80;59.50;;;;;;5075713;28;20028;-74
2022/07/31 00:42:42;;;;;;;6.28;3.10;;;28.80;59.50;;;;;;5094112;28;20024;-74
2022/07/31 00:45:09;;;;;;;9.45;4.70;;;28.80;57.50;;;;;;5093799;28;20020;-73
2022/07/31 00:47:35;;;;;;;10.00;4.30;;;28.80;59.10;;;;;;5076148;28;20105;-73
2022/07/31 00:50:01;;;;;;;8.65;4.50;;;28.80;60.60;;;;;;5093943;28;20501;-71
2022/07/31 00:52:27;;;;;;;9.57;4.10;;;28.80;61.20;;;;;;5093984;28;20024;-71
2022/07/31 00:54:53;;;;;;;9.05;4.13;;;28.80;61.60;;;;;;5093792;28;20027;-70
2022/07/31 00:57:18;;;;;;;7.20;4.50;;;28.80;61.70;;;;;;5093465;28;20044;-72
2022/07/31 00:59:44;;;;;;;6.93;4.05;;;28.70;61.50;;;;;;5093809;28;20028;-72
2022/07/31 01:02:10;;;;;;;11.40;4.05;;;28.70;60.80;;;;;;5075392;28;20102;-72
2022/07/31 01:04:36;;;;;;;7.53;4.13;;;28.70;61.60;;;;;;5093669;28;20024;-73
2022/07/31 01:07:02;;;;;;;8.88;3.75;;;28.60;62.40;;;;;;5093445;28;20059;-72
2022/07/31 01:09:28;;;;;;;8.23;4.20;;;28.60;62.50;;;;;;5093465;28;20043;-72
2022/07/31 01:12:45;;;;;;;9.70;4.57;;;28.50;62.60;;;;;;5093413;28;20104;-71
2022/07/31 01:15:12;;;;;;;7.15;3.47;;;28.50;62.20;;;;;;5038075;28;20130;-72
2022/07/31 01:17:40;;;;;;;10.20;4.13;;;28.50;60.40;;;;;;5093916;28;20027;-72
2022/07/31 01:20:07;;;;;;;7.22;3.97;;;28.50;63.40;;;;;;5094042;28;20355;-71
2022/07/31 01:23:01;;;;;;;9.45;4.40;;;28.40;63.20;;;;;;5093319;28;20081;-71
2022/07/31 01:25:27;;;;;;;11.48;4.50;;;28.40;63.90;;;;;;5093215;28;20021;-72
2022/07/31 01:28:08;;;;;;;8.10;4.00;;;28.40;64.40;;;;;;5093315;28;20034;-72
2022/07/31 01:30:47;;;;;;;10.02;4.05;;;28.50;65.40;;;;;;5093457;28;20028;-72
2022/07/31 01:33:17;;;;;;;11.38;5.03;;;28.50;65.00;;;;;;5074982;28;20031;-71
2022/07/31 01:35:49;;;;;;;8.95;4.85;;;28.40;66.00;;;;;;5093154;28;20488;-73
2022/07/31 01:38:21;;;;;;;7.70;4.65;;;28.30;66.10;;;;;;5093136;28;20024;-71
2022/07/31 01:40:53;;;;;;;11.37;5.20;;;28.30;66.10;;;;;;5093328;28;20080;-71
2022/07/31 01:43:22;;;;;;;13.88;6.72;;;28.20;67.30;;;;;;5093019;28;20254;-71
2022/07/31 01:45:56;;;;;;;10.68;5.63;;;28.20;68.20;;;;;;5092928;28;20024;-72
2022/07/31 01:48:22;;;;;;;10.98;5.00;;;28.10;68.90;;;;;;5093186;28;20063;-72
2022/07/31 01:50:51;;;;;;;7.95;4.50;;;28.00;69.50;;;;;;5092972;28;20024;-72
2022/07/31 01:53:20;;;;;;;10.68;5.07;;;27.90;69.90;;;;;;5093268;28;20551;-72
2022/07/31 01:55:47;;;;;;;8.98;4.80;;;27.90;70.40;;;;;;5092788;28;20040;-73
2022/07/31 01:58:16;;;;;;;12.32;5.13;;;27.80;70.40;;;;;;5093007;28;20370;-73
2022/07/31 02:00:43;;;;;;;9.38;5.55;;;27.80;70.60;;;;;;5092927;28;20032;-73
2022/07/31 02:03:12;;;;;;;11.00;5.63;;;27.80;70.50;;;;;;5093036;28;20095;-71
2022/07/31 02:05:43;;;;;;;10.70;5.45;;;27.80;70.80;;;;;;5092740;28;20028;-73
2022/07/31 02:08:10;;;;;;;10.20;5.75;;;27.80;71.20;;;;;;5092811;28;20099;-73
2022/07/31 02:10:37;;;;;;;10.85;5.50;;;27.80;70.50;;;;;;5093054;28;20120;-71
2022/07/31 02:13:04;;;;;;;11.35;5.65;;;27.70;70.10;;;;;;5092789;28;20480;-72
2022/07/31 02:15:31;;;;;;;8.52;5.25;;;27.70;70.40;;;;;;5092643;28;20366;-74
2022/07/31 02:17:59;;;;;;;13.05;5.10;;;27.70;70.20;;;;;;5092863;28;20059;-72
2022/07/31 02:20:25;;;;;;;10.15;5.47;;;27.70;70.30;;;;;;5092911;28;20052;-72
2022/07/31 02:22:55;;;;;;;14.88;5.38;;;27.60;69.90;;;;;;5092863;28;20095;-72
2022/07/31 02:25:21;;;;;;;7.75;4.50;;;27.60;70.30;;;;;;5096275;28;20097;-71
2022/07/31 02:27:49;;;;;;;12.35;5.35;;;27.60;70.30;;;;;;5096519;28;20476;-72
2022/07/31 02:30:15;;;;;;;9.75;4.88;;;27.60;70.10;;;;;;5096368;28;20030;-72
2022/07/31 02:32:46;;;;;;;10.55;5.13;;;27.60;70.00;;;;;;5096728;28;20028;-74
2022/07/31 02:35:14;;;;;;;10.38;4.82;;;27.60;70.20;;;;;;5096370;28;20055;-71
2022/07/31 02:37:41;;;;;;;9.43;4.90;;;27.50;70.30;;;;;;5096799;28;20103;-72
2022/07/31 02:40:09;;;;;;;8.93;4.55;;;27.50;70.50;;;;;;5096413;28;20112;-72
2022/07/31 02:42:35;;;;;;;10.43;4.70;;;27.40;70.50;;;;;;5077888;28;20027;-72
2022/07/31 02:45:02;;;;;;;7.38;4.40;;;27.40;70.70;;;;;;5096172;28;20091;-72
2022/07/31 02:47:28;;;;;;;10.63;4.93;;;27.30;70.70;;;;;;5077873;28;20052;-74
2022/07/31 02:49:54;;;;;;;10.68;4.53;;;27.30;70.80;;;;;;5096351;28;20012;-72
2022/07/31 02:52:21;;;;;;;8.90;4.40;;;27.20;70.90;;;;;;5096116;28;20024;-73
2022/07/31 02:54:48;;;;;;;7.22;4.43;;;27.20;71.10;;;;;;5096094;28;20013;-70
2022/07/31 02:57:16;;;;;;;8.93;4.80;;;27.20;71.00;;;;;;5095751;28;20051;-71
2022/07/31 02:59:42;;;;;;;12.68;5.05;;;27.20;71.30;;;;;;5095861;28;20035;-71
2022/07/31 03:02:09;;;;;;;9.20;5.20;;;27.10;71.40;;;;;;5095946;28;20415;-72
2022/07/31 03:04:34;;;;;;;10.70;4.75;;;27.10;71.10;;;;;;5095984;28;20119;-72
2022/07/31 03:07:01;;;;;;;10.85;5.00;;;27.10;71.10;;;;;;5095501;28;20031;-74
2022/07/31 03:09:29;;;;;;;12.15;4.70;;;27.00;70.90;;;;;;5095648;28;20024;-75
2022/07/31 03:11:58;;;;;;;14.73;5.10;;;27.10;70.80;;;;;;5095307;28;20078;-71
2022/07/31 03:14:25;;;;;;;15.40;4.93;;;27.10;70.30;;;;;;5095763;28;20031;-71
2022/07/31 03:16:52;;;;;;;8.73;4.43;;;27.10;70.50;;;;;;5095699;28;20028;-72
2022/07/31 03:19:22;;;;;;;13.82;4.72;;;27.10;70.40;;;;;;5095776;28;20047;-71
2022/07/31 03:21:49;;;;;;;7.63;4.35;;;27.10;70.40;;;;;;5095586;28;20376;-70
2022/07/31 03:24:16;;;;;;;8.50;4.18;;;27.10;70.30;;;;;;5095625;28;20385;-71
2022/07/31 03:26:42;;;;;;;8.38;4.00;;;27.10;70.30;;;;;;5095093;28;20067;-72
2022/07/31 03:29:07;;;;;;;9.20;4.53;;;27.00;70.50;;;;;;5095516;28;20444;-73
2022/07/31 03:31:33;;;;;;;7.90;4.15;;;27.00;70.70;;;;;;5095450;28;20024;-71
2022/07/31 03:33:59;;;;;;;12.32;4.30;;;26.90;70.70;;;;;;5095409;28;20051;-71
2022/07/31 03:36:26;;;;;;;15.32;4.45;;;26.90;71.20;;;;;;5094898;28;20473;-71
2022/07/31 03:38:52;;;;;;;13.80;3.95;;;26.90;71.00;;;;;;5095275;28;20024;-71
2022/07/31 03:41:18;;;;;;;13.35;5.00;;;26.90;71.20;;;;;;5095219;28;20466;-72
2022/07/31 03:43:45;;;;;;;6.95;3.80;;;26.90;71.20;;;;;;5095134;28;20023;-71
2022/07/31 03:46:14;;;;;;;10.40;3.95;;;27.00;71.40;;;;;;5094893;28;20032;-72
2022/07/31 03:48:40;;;;;;;8.15;4.20;;;27.00;71.50;;;;;;5095574;28;20066;-71
2022/07/31 03:51:06;;;;;;;7.75;4.07;;;26.90;71.30;;;;;;5094963;28;20028;-71
2022/07/31 03:53:32;;;;;;;7.45;3.70;;;26.90;71.50;;;;;;5095019;28;20024;-70
2022/07/31 03:56:01;;;;;;;9.15;4.40;;;27.00;71.50;;;;;;5095101;28;20044;-71
2022/07/31 03:58:28;;;;;;;9.13;4.45;;;27.00;71.60;;;;;;5076378;28;20050;-71
2022/07/31 04:00:54;;;;;;;7.63;3.95;;;26.90;71.70;;;;;;5094741;28;20020;-71
2022/07/31 04:03:19;;;;;;;8.35;4.38;;;26.90;71.70;;;;;;5094786;28;20099;-70
2022/07/31 04:05:45;;;;;;;7.65;4.10;;;26.90;71.70;;;;;;5094506;28;20477;-72
2022/07/31 04:08:11;;;;;;;9.70;4.65;;;26.80;71.70;;;;;;5094416;28;20028;-70
2022/07/31 04:10:37;;;;;;;10.88;4.20;;;26.90;71.90;;;;;;5094604;28;20028;-71
2022/07/31 04:13:04;;;;;;;9.05;4.18;;;26.80;72.00;;;;;;5094479;28;20032;-71
2022/07/31 04:15:42;;;;;;;;;;;;;;;;;;;;;
2022/07/31 04:18:08;;;;;;;10.15;3.95;;;26.80;71.90;;;;;;5090024;28;20044;-71
2022/07/31 04:20:34;;;;;;;7.28;3.42;;;26.70;72.30;;;;;;5094357;28;20449;-72
2022/07/31 04:23:00;;;;;;;7.03;3.30;;;26.70;72.00;;;;;;5094589;28;20046;-71
2022/07/31 04:25:25;;;;;;;7.25;3.50;;;26.70;71.80;;;;;;5094478;28;20385;-72
2022/07/31 04:27:51;;;;;;;29.40;26.40;;;26.80;71.60;;;;;;5094383;28;20036;-72
2022/07/31 04:30:17;;;;;;;8.18;3.60;;;26.70;71.40;;;;;;5094039;28;20020;-72
2022/07/31 04:32:42;;;;;;;8.13;3.47;;;26.70;71.30;;;;;;5094086;28;20497;-72
2022/07/31 04:35:08;;;;;;;11.43;3.88;;;26.70;71.10;;;;;;5093889;28;20020;-72
2022/07/31 04:37:34;;;;;;;9.02;3.65;;;26.70;70.80;;;;;;5094319;28;20020;-72
2022/07/31 04:40:00;;;;;;;6.95;3.20;;;26.70;70.60;;;;;;5094177;28;20149;-72
2022/07/31 04:42:25;;;;;;;9.88;3.38;;;26.70;70.50;;;;;;5093953;28;20492;-71
2022/07/31 04:44:51;;;;;;;7.75;3.63;;;26.80;70.30;;;;;;5075188;28;20541;-72
2022/07/31 04:47:17;;;;;;;10.23;4.28;;;26.70;70.20;;;;;;5093121;28;20044;-76
2022/07/31 04:49:42;;;;;;;8.13;3.63;;;26.70;70.30;;;;;;5093911;28;20089;-75
2022/07/31 04:52:08;;;;;;;9.13;3.33;;;26.70;70.20;;;;;;5093621;28;20063;-74
2022/07/31 04:54:34;;;;;;;6.40;3.55;;;26.70;70.00;;;;;;5093774;28;20095;-73
2022/07/31 04:56:59;;;;;;;9.73;4.00;;;26.70;69.90;;;;;;5093578;28;20044;-73
2022/07/31 04:59:25;;;;;;;9.52;3.17;;;26.70;69.60;;;;;;5093456;28;20031;-71
2022/07/31 05:01:52;;;;;;;8.98;3.00;;;26.70;69.10;;;;;;5093703;28;20028;-73
2022/07/31 05:04:17;;;;;;;6.82;3.35;;;26.80;69.00;;;;;;5093654;28;20020;-72
2022/07/31 05:06:46;;;;;;;6.78;3.25;;;26.80;68.90;;;;;;5075406;28;20386;-72
2022/07/31 05:09:15;;;;;;;5.50;3.25;;;26.80;68.80;;;;;;5093797;28;20024;-72
2022/07/31 05:11:41;;;;;;;11.07;3.92;;;26.90;68.70;;;;;;5075405;28;20119;-72
2022/07/31 05:14:09;;;;;;;7.47;3.83;;;26.90;68.80;;;;;;5093571;28;20008;-72
2022/07/31 05:16:35;;;;;;;12.07;3.75;;;27.00;69.10;;;;;;5093260;28;20074;-73
2022/07/31 05:19:02;;;;;;;9.45;4.18;;;27.00;69.30;;;;;;5093245;28;20020;-72
2022/07/31 05:21:31;;;;;;;7.85;3.70;;;27.00;69.10;;;;;;5093100;28;20036;-72
2022/07/31 05:23:59;;;;;;;10.70;3.97;;;27.20;68.80;;;;;;5093258;28;20458;-71
2022/07/31 05:26:26;;;;;;;8.80;3.67;;;27.40;68.40;;;;;;5093028;28;20090;-71
2022/07/31 05:28:54;;;;;;;5.93;3.30;;;27.60;67.80;;;;;;5075096;28;20071;-71
2022/07/31 05:31:20;;;;;;;7.43;3.55;;;27.80;66.70;;;;;;5093179;28;20099;-72
2022/07/31 05:33:47;;;;;;;6.07;3.28;;;28.10;65.60;;;;;;5092998;28;20469;-71
2022/07/31 05:36:14;;;;;;;8.77;3.47;;;28.20;64.50;;;;;;5092945;28;20024;-72
2022/07/31 05:38:40;;;;;;;7.90;3.42;;;28.50;63.70;;;;;;5075128;28;20024;-71
2022/07/31 05:41:06;;;;;;;8.63;4.00;;;28.90;62.70;;;;;;5093136;28;20050;-72
2022/07/31 05:43:32;;;;;;;6.35;3.33;;;29.20;61.60;;;;;;5075042;28;20032;-71
2022/07/31 05:45:58;;;;;;;6.20;3.67;;;29.40;60.90;;;;;;5093021;28;20046;-72
2022/07/31 05:48:24;;;;;;;6.47;3.60;;;29.70;60.20;;;;;;5093050;28;20024;-73
2022/07/31 05:50:51;;;;;;;6.97;3.58;;;29.90;59.40;;;;;;5093071;28;20020;-72
2022/07/31 05:53:17;;;;;;;7.43;3.40;;;30.10;58.70;;;;;;5092972;28;20028;-71
2022/07/31 05:55:45;;;;;;;7.47;3.47;;;30.30;58.30;;;;;;5093054;28;20043;-72
2022/07/31 05:58:11;;;;;;;8.77;3.40;;;30.50;57.90;;;;;;5076878;28;20519;-73
2022/07/31 06:00:38;;;;;;;9.38;3.35;;;30.70;57.40;;;;;;5097053;28;20016;-72
2022/07/31 06:03:04;;;;;;;6.70;3.42;;;30.80;56.90;;;;;;5097156;28;20130;-72
2022/07/31 06:05:30;;;;;;;6.03;3.30;;;30.90;56.30;;;;;;5078728;28;20032;-71
2022/07/31 06:07:57;;;;;;;9.25;3.45;;;31.00;55.80;;;;;;5097227;28;20061;-71
2022/07/31 06:10:23;;;;;;;6.63;2.97;;;31.00;55.30;;;;;;5097110;28;20027;-70
2022/07/31 06:12:49;;;;;;;9.57;2.83;;;31.20;54.80;;;;;;5096823;28;20032;-71
2022/07/31 06:15:15;;;;;;;7.00;3.28;;;31.40;54.30;;;;;;5096750;28;20020;-74
2022/07/31 06:17:41;;;;;;;4.63;3.10;;;31.60;54.20;;;;;;5096813;28;20094;-72
2022/07/31 06:20:09;;;;;;;5.18;2.55;;;31.70;53.80;;;;;;5096894;28;20024;-72
2022/07/31 06:22:35;;;;;;;9.32;3.30;;;31.70;53.20;;;;;;5096956;28;20088;-71
2022/07/31 06:25:04;;;;;;;7.70;2.97;;;31.80;53.00;;;;;;5096746;28;20024;-72
2022/07/31 06:27:30;;;;;;;5.68;2.63;;;31.90;52.60;;;;;;5096347;28;20032;-71
2022/07/31 06:29:56;;;;;;;5.97;2.70;;;32.10;52.20;;;;;;5096753;28;20124;-71
2022/07/31 06:32:41;;;;;;;7.50;3.20;;;32.20;51.80;;;;;;5096988;28;20024;-74
2022/07/31 06:35:07;;;;;;;7.70;2.70;;;32.50;50.60;;;;;;5096595;28;20016;-72
2022/07/31 06:37:33;;;;;;;6.03;2.88;;;32.60;51.00;;;;;;5096720;28;20027;-73
2022/07/31 06:39:59;;;;;;;7.05;2.60;;;32.50;50.80;;;;;;5096642;28;20024;-73
2022/07/31 06:42:25;;;;;;;8.48;2.58;;;32.80;50.70;;;;;;5096210;28;20016;-71
2022/07/31 06:44:52;;;;;;;5.50;3.28;;;32.90;50.10;;;;;;5096298;28;20072;-71
2022/07/31 06:47:20;;;;;;;9.50;3.00;;;32.90;50.10;;;;;;5096143;28;20043;-71
2022/07/31 06:49:46;;;;;;;8.70;2.92;;;32.70;49.90;;;;;;5096197;28;20161;-70
2022/07/31 06:52:11;;;;;;;5.80;2.60;;;32.80;50.00;;;;;;5096277;28;20067;-72
2022/07/31 06:54:37;;;;;;;5.07;2.60;;;32.60;49.80;;;;;;5096142;28;20516;-74
2022/07/31 06:57:03;;;;;;;6.00;2.45;;;32.60;49.70;;;;;;5095739;28;20486;-74
2022/07/31 06:59:29;;;;;;;8.82;2.90;;;32.80;49.30;;;;;;5096111;28;20028;-73
2022/07/31 07:01:55;;;;;;;6.07;2.75;;;32.80;49.30;;;;;;5077873;28;20158;-73
2022/07/31 07:04:21;;;;;;;5.70;2.75;;;32.90;49.00;;;;;;5077659;28;20422;-72
2022/07/31 07:06:46;;;;;;;7.55;2.60;;;32.80;49.10;;;;;;5095786;28;20056;-72
2022/07/31 07:09:12;;;;;;;5.93;2.85;;;32.80;49.00;;;;;;5095078;28;20021;-72
2022/07/31 07:11:38;;;;;;;5.63;3.03;;;32.70;49.10;;;;;;5095743;28;20519;-72
2022/07/31 07:14:04;;;;;;;8.13;2.95;;;32.80;49.10;;;;;;5096022;28;20098;-72
2022/07/31 07:16:29;;;;;;;5.25;2.92;;;32.90;49.10;;;;;;5095301;28;20032;-73
2022/07/31 07:18:55;;;;;;;5.13;2.80;;;33.00;48.80;;;;;;5095683;28;20028;-72
2022/07/31 07:21:21;;;;;;;4.93;2.70;;;33.00;48.90;;;;;;5095594;28;20024;-72
2022/07/31 07:23:46;;;;;;;5.72;2.90;;;33.20;49.00;;;;;;5095603;28;20035;-72
2022/07/31 07:26:12;;;;;;;28.20;8.60;;;33.20;48.70;;;;;;5095339;28;20472;-73
2022/07/31 07:28:39;;;;;;;5.63;2.42;;;33.20;48.60;;;;;;5094547;28;20071;-73
2022/07/31 07:31:05;;;;;;;26.80;5.25;;;33.20;48.20;;;;;;5095156;28;20016;-77
2022/07/31 07:33:31;;;;;;;6.57;3.53;;;33.30;48.50;;;;;;5077577;28;20528;-74
2022/07/31 07:35:57;;;;;;;9.38;3.08;;;33.40;48.20;;;;;;5095242;28;20150;-74
2022/07/31 07:38:23;;;;;;;6.47;3.70;;;33.60;48.10;;;;;;5095545;28;20385;-75
2022/07/31 07:40:49;;;;;;;7.85;2.78;;;33.80;48.10;;;;;;5095071;28;20016;-75
2022/07/31 07:43:17;;;;;;;6.20;3.10;;;33.80;47.90;;;;;;5094945;28;20028;-76
2022/07/31 07:45:43;;;;;;;8.25;4.43;;;33.90;48.20;;;;;;5094903;28;20020;-73
2022/07/31 07:48:09;;;;;;;8.82;3.10;;;33.90;48.00;;;;;;5077216;28;20034;-72
2022/07/31 07:50:35;;;;;;;8.40;3.00;;;33.90;47.80;;;;;;5094842;28;20465;-72
2022/07/31 07:53:00;;;;;;;7.45;3.78;;;33.90;48.00;;;;;;5094845;28;20020;-72
2022/07/31 07:55:26;;;;;;;6.80;3.20;;;33.80;48.10;;;;;;5094327;28;20024;-72
2022/07/31 07:57:52;;;;;;;5.32;3.10;;;33.60;47.90;;;;;;5094692;28;20046;-72
2022/07/31 08:00:18;;;;;;;7.63;2.90;;;33.70;48.30;;;;;;5094833;28;20073;-71
2022/07/31 08:02:45;;;;;;;6.95;3.85;;;33.70;48.30;;;;;;5094685;28;20032;-71
2022/07/31 08:05:11;;;;;;;7.53;3.30;;;33.60;48.30;;;;;;5094549;28;20020;-73
2022/07/31 08:07:38;;;;;;;6.35;3.22;;;33.50;48.40;;;;;;5094565;28;20043;-72
2022/07/31 08:10:06;;;;;;;5.47;2.70;;;33.50;48.80;;;;;;5094274;28;20387;-78
2022/07/31 08:12:32;;;;;;;5.65;2.42;;;33.40;48.50;;;;;;5094493;28;20131;-72
2022/07/31 08:14:59;;;;;;;6.22;2.90;;;33.30;49.00;;;;;;5094247;28;20544;-73
2022/07/31 08:17:25;;;;;;;19.52;4.00;;;33.30;48.60;;;;;;5094320;28;20492;-72
2022/07/31 08:19:51;;;;;;;25.13;5.15;;;33.30;48.60;;;;;;5094171;28;20024;-70
2022/07/31 08:22:17;;;;;;;13.18;3.58;;;33.30;49.00;;;;;;5092915;28;20031;-71
2022/07/31 08:24:43;;;;;;;6.18;2.97;;;33.20;49.30;;;;;;5093954;28;20021;-72
2022/07/31 08:27:24;;;;;;;7.85;2.88;;;33.10;49.20;;;;;;5075436;28;20055;-71
2022/07/31 08:30:00;;;;;;;6.90;2.90;;;33.00;48.60;;;;;;5094242;28;20021;-73
2022/07/31 08:32:26;;;;;;;12.02;2.92;;;32.80;49.40;;;;;;5093974;28;20031;-71
2022/07/31 08:34:53;;;;;;;6.78;2.90;;;32.70;49.50;;;;;;5093705;28;20031;-73
2022/07/31 08:37:19;;;;;;;7.40;3.10;;;32.60;49.90;;;;;;5094005;28;20457;-74
2022/07/31 08:39:46;;;;;;;7.72;3.10;;;32.40;49.80;;;;;;5094002;28;20024;-72
2022/07/31 08:42:18;;;;;;;8.50;3.70;;;32.40;50.10;;;;;;5070726;28;20383;-73
2022/07/31 08:44:45;;;;;;;8.70;3.40;;;32.30;50.30;;;;;;5070252;28;20025;-71
2022/07/31 08:47:18;;;;;;;5.93;2.97;;;32.30;50.20;;;;;;5070456;28;20077;-72
2022/07/31 08:49:48;;;;;;;8.52;3.15;;;32.10;49.30;;;;;;5070028;28;20050;-71
2022/07/31 08:52:24;;;;;;;11.07;5.28;;;32.00;50.60;;;;;;5070338;28;20162;-71
2022/07/31 08:54:52;;;;;;;6.93;3.00;;;32.00;50.60;;;;;;5070064;28;20028;-72
2022/07/31 08:57:18;;;;;;;8.10;3.70;;;32.00;50.80;;;;;;5068700;28;20028;-71
2022/07/31 08:59:44;;;;;;;9.23;3.35;;;32.00;50.50;;;;;;5069868;28;20401;-70
2022/07/31 09:02:11;;;;;;;8.60;3.20;;;32.00;50.80;;;;;;5069417;28;20124;-71
2022/07/31 09:04:37;;;;;;;4.70;2.65;;;31.80;50.50;;;;;;5069421;28;20040;-71
2022/07/31 09:07:03;;;;;;;6.30;3.15;;;31.80;50.40;;;;;;5069713;28;20032;-72
2022/07/31 09:09:30;;;;;;;5.30;2.70;;;31.70;50.30;;;;;;5069841;28;20514;-72
2022/07/31 09:11:56;;;;;;;6.00;2.80;;;31.70;49.90;;;;;;5069624;28;20143;-71
2022/07/31 09:14:33;;;;;;;8.13;2.72;;;31.80;50.20;;;;;;5069189;28;20029;-71
2022/07/31 09:17:01;;;;;;;6.07;2.85;;;31.80;50.40;;;;;;5069311;28;20027;-71
2022/07/31 09:19:38;;;;;;;6.18;2.45;;;31.80;49.80;;;;;;5069432;28;20075;-72
2022/07/31 09:22:04;;;;;;;8.20;3.13;;;31.80;49.40;;;;;;5068032;28;20037;-72
2022/07/31 09:24:32;;;;;;;5.85;2.47;;;31.80;49.10;;;;;;5069490;28;20021;-71
2022/07/31 09:27:08;;;;;;;9.10;3.00;;;31.80;49.20;;;;;;5069011;28;20034;-70
2022/07/31 09:29:39;;;;;;;7.93;2.88;;;31.90;48.90;;;;;;5069037;28;20020;-71
2022/07/31 09:32:16;;;;;;;4.80;2.45;;;31.90;48.10;;;;;;5069519;28;20031;-72
2022/07/31 09:34:50;;;;;;;5.13;2.45;;;31.90;48.20;;;;;;5069004;28;20157;-71
2022/07/31 09:37:43;;;;;;;5.85;2.47;;;31.90;48.60;;;;;;5067459;28;20047;-72
2022/07/31 09:40:09;;;;;;;5.88;2.45;;;31.90;47.10;;;;;;5068378;28;20029;-72
2022/07/31 09:42:43;;;;;;;3.83;2.40;;;32.00;47.30;;;;;;5068638;28;20142;-72
2022/07/31 09:45:17;;;;;;;6.50;2.70;;;32.00;47.20;;;;;;5068576;28;20060;-71
2022/07/31 09:47:43;;;;;;;10.25;2.55;;;32.00;47.10;;;;;;5068928;28;20029;-71
2022/07/31 09:50:09;;;;;;;7.78;2.65;;;32.10;47.30;;;;;;5068728;28;20140;-74
2022/07/31 09:52:35;;;;;;;3.75;2.35;;;32.10;46.90;;;;;;5061743;28;20035;-75
2022/07/31 09:55:11;;;;;;;5.35;2.50;;;32.20;46.70;;;;;;5055417;28;20470;-71
2022/07/31 09:57:49;;;;;;;4.47;2.15;;;32.20;45.80;;;;;;5055552;28;20079;-72
2022/07/31 10:00:15;;;;;;;5.90;2.60;;;32.30;46.10;;;;;;5055524;28;20026;-75
2022/07/31 10:02:43;;;;;;;4.88;2.00;;;32.40;46.00;;;;;;5055610;28;20106;-73
2022/07/31 10:05:10;;;;;;;4.10;2.15;;;32.40;45.20;;;;;;5055471;28;20029;-74
2022/07/31 10:07:37;;;;;;;5.35;2.63;;;32.40;44.90;;;;;;5055540;28;20049;-73
2022/07/31 10:10:06;;;;;;;9.18;2.42;;;32.40;45.20;;;;;;5055505;28;20028;-74
2022/07/31 10:12:34;;;;;;;3.95;2.50;;;32.40;45.20;;;;;;5055378;28;20103;-76
2022/07/31 10:15:06;;;;;;;4.45;2.30;;;32.50;45.10;;;;;;5055157;28;20025;-74
2022/07/31 10:17:35;;;;;;;8.10;2.33;;;32.50;44.50;;;;;;5055084;28;20025;-73
2022/07/31 10:20:04;;;;;;;6.10;2.63;;;32.60;44.60;;;;;;5055138;28;20021;-74
2022/07/31 10:22:44;;;;;;;4.03;2.50;;;32.60;44.60;;;;;;5055434;28;20037;-73
2022/07/31 10:25:15;;;;;;;6.10;2.53;;;32.60;45.00;;;;;;5055143;28;20032;-74
2022/07/31 10:27:43;;;;;;;4.70;2.40;;;32.70;44.50;;;;;;5055141;28;20036;-77
2022/07/31 10:30:09;;;;;;;11.60;2.83;;;32.70;43.60;;;;;;5054964;28;20024;-74
2022/07/31 10:32:35;;;;;;;5.05;2.00;;;32.80;43.40;;;;;;5055208;28;20037;-75
2022/07/31 10:35:04;;;;;;;3.28;1.85;;;32.80;42.40;;;;;;5055002;28;20027;-72
2022/07/31 10:37:38;;;;;;;3.85;1.80;;;32.80;41.80;;;;;;5054978;28;20025;-75
2022/07/31 10:40:26;;;;;;;5.65;2.08;;;32.80;41.00;;;;;;5055003;28;20021;-73
2022/07/31 10:43:05;;;;;;;14.00;2.72;;;32.90;40.80;;;;;;5054853;28;20501;-74
2022/07/31 10:45:31;;;;;;;7.55;4.30;;;33.00;40.40;;;;;;5054522;28;20496;-74
2022/07/31 10:47:59;;;;;;;7.25;3.63;;;33.10;40.60;;;;;;5054588;28;20100;-73
2022/07/31 10:50:29;;;;;;;10.50;4.35;;;33.10;40.10;;;;;;5054618;28;20025;-73
2022/07/31 10:53:06;;;;;;;7.47;2.97;;;33.20;39.40;;;;;;5053237;28;20028;-77
2022/07/31 10:55:33;;;;;;;8.27;2.95;;;33.30;40.20;;;;;;5054365;28;20099;-71
2022/07/31 10:58:18;;;;;;;6.00;3.25;;;33.30;39.40;;;;;;5054094;28;20424;-72
2022/07/31 11:00:44;;;;;;;5.10;2.83;;;33.40;38.00;;;;;;5054014;28;20385;-72
2022/07/31 11:03:13;;;;;;;9.00;2.20;;;33.50;37.00;;;;;;5053770;28;20459;-71
2022/07/31 11:05:38;;;;;;;7.78;5.10;;;33.60;36.70;;;;;;5053669;28;20044;-71
2022/07/31 11:08:09;;;;;;;6.13;2.88;;;33.60;35.80;;;;;;5054771;28;20021;-71
2022/07/31 11:10:35;;;;;;;5.30;2.22;;;33.70;35.90;;;;;;5053900;28;20116;-73
2022/07/31 11:13:09;;;;;;;5.47;2.20;;;33.70;36.40;;;;;;5053992;28;20096;-74
2022/07/31 11:15:38;;;;;;;3.30;1.75;;;33.70;36.10;;;;;;5053480;28;20108;-70
2022/07/31 11:18:15;;;;;;;2.22;1.20;;;33.80;36.10;;;;;;5053722;28;20024;-73
2022/07/31 11:20:45;;;;;;;3.17;1.42;;;33.90;34.70;;;;;;5054007;28;20366;-75
2022/07/31 11:23:14;;;;;;;3.47;1.50;;;33.90;33.20;;;;;;5052359;28;20052;-72
2022/07/31 11:25:40;;;;;;;3.25;1.33;;;33.90;33.10;;;;;;5036153;28;20033;-72
2022/07/31 11:28:23;;;;;;;4.10;1.33;;;34.00;33.80;;;;;;5053488;28;20049;-72
2022/07/31 11:30:55;;;;;;;3.08;1.38;;;34.10;34.60;;;;;;5053728;28;20021;-72
2022/07/31 11:33:41;;;;;;;2.42;1.40;;;34.10;33.70;;;;;;5053710;28;20021;-71
2022/07/31 11:36:10;;;;;;;4.43;2.08;;;34.20;34.00;;;;;;5053469;28;20025;-72
2022/07/31 11:38:37;;;;;;;5.32;1.90;;;34.20;35.70;;;;;;5053239;28;20029;-71
2022/07/31 11:41:05;;;;;;;2.72;1.70;;;34.20;34.80;;;;;;5052983;28;20491;-73
2022/07/31 11:43:33;;;;;;;1.85;1.25;;;34.30;33.60;;;;;;5053459;28;20115;-72
2022/07/31 11:45:59;;;;;;;7.55;1.83;;;34.40;33.10;;;;;;5052986;28;20108;-70
2022/07/31 11:48:26;;;;;;;3.33;1.65;;;34.50;33.20;;;;;;5053333;28;20036;-71
2022/07/31 11:50:52;;;;;;;2.63;1.50;;;34.60;32.50;;;;;;5052884;28;20041;-71
2022/07/31 11:53:19;;;;;;;3.13;1.70;;;34.60;32.00;;;;;;5053160;28;20079;-72
2022/07/31 11:55:51;;;;;;;3.67;1.55;;;34.70;32.40;;;;;;5053105;28;20017;-70
2022/07/31 11:58:18;;;;;;;4.03;1.40;;;34.70;30.50;;;;;;5053029;28;20051;-72
2022/07/31 12:00:56;;;;;;;4.57;1.33;;;34.70;30.60;;;;;;5051795;28;20067;-71
2022/07/31 12:03:30;;;;;;;3.38;1.80;;;34.70;31.20;;;;;;5053127;28;20099;-73
2022/07/31 12:05:56;;;;;;;6.22;1.63;;;34.80;30.70;;;;;;5053003;28;20532;-71
2022/07/31 12:08:23;;;;;;;5.05;2.10;;;34.90;31.60;;;;;;5052851;28;20028;-71
2022/07/31 12:10:52;;;;;;;5.47;2.70;;;35.00;35.20;;;;;;5052657;28;20017;-71
2022/07/31 12:13:20;;;;;;;5.70;2.40;;;35.10;36.10;;;;;;5051704;28;20041;-73
2022/07/31 12:16:07;;;;;;;7.63;2.47;;;35.10;37.30;;;;;;5052408;28;20054;-72
2022/07/31 12:18:55;;;;;;;5.20;2.83;;;35.10;40.30;;;;;;5052790;28;20052;-72
2022/07/31 12:21:35;;;;;;;6.45;2.47;;;35.10;40.60;;;;;;5052850;28;20083;-73
2022/07/31 12:24:09;;;;;;;6.85;2.40;;;35.10;41.00;;;;;;5052834;28;20035;-70
2022/07/31 12:26:36;;;;;;;4.95;2.30;;;35.10;40.40;;;;;;5052296;28;20623;-74
2022/07/31 12:29:07;;;;;;;6.25;2.70;;;35.10;41.70;;;;;;5052706;28;20044;-73
2022/07/31 12:31:51;;;;;;;7.15;2.38;;;35.10;40.60;;;;;;5052823;28;20036;-71
2022/07/31 12:34:34;;;;;;;4.15;2.28;;;35.10;40.30;;;;;;5052614;28;20150;-71
2022/07/31 12:37:13;;;;;;;6.75;2.28;;;35.10;40.10;;;;;;5052261;28;20025;-74
2022/07/31 12:39:51;;;;;;;5.07;2.10;;;35.10;41.20;;;;;;5052775;28;20022;-72
2022/07/31 12:42:28;;;;;;;4.55;2.05;;;35.10;40.80;;;;;;5052192;28;20041;-72
2022/07/31 12:44:56;;;;;;;5.72;2.53;;;35.20;40.50;;;;;;5052319;28;20021;-73
2022/07/31 12:47:24;;;;;;;3.88;1.98;;;35.20;39.30;;;;;;5052038;28;20085;-72
2022/07/31 12:49:51;;;;;;;5.60;2.00;;;35.10;39.30;;;;;;5052121;28;20021;-73
2022/07/31 12:52:17;;;;;;;7.03;2.00;;;35.20;39.50;;;;;;5052553;28;20360;-73